Time,TemperatureF,DewpointF,PressureIn,WindDirection,WindDirectionDegrees,WindSpeedMPH,WindSpeedGustMPH,Humidity,HourlyPrecipIn,Conditions,Clouds,dailyrainin,SoftwareType,DateUTC
2013-09-29 00:42:00,56.0,18.0,-100.00,SSW,208,11.0,21.0,22,0.00,,,-99.99,,2013-09-29 07:42:00,
2013-09-29 01:22:00,56.0,23.0,-100.00,SSW,210,14.0,24.0,27,0.00,,,-99.99,,2013-09-29 08:22:00,
2013-09-29 01:42:00,56.0,23.0,-100.00,SSW,208,13.0,24.0,28,0.00,,,-99.99,,2013-09-29 08:42:00,
2013-09-29 01:52:00,56.0,24.0,-100.00,SSW,208,11.0,22.0,29,0.00,,,-99.99,,2013-09-29 08:52:00,
2013-09-29 02:02:00,56.0,24.0,-100.00,SSW,208,11.0,22.0,29,0.00,,,-99.99,,2013-09-29 09:02:00,
2013-09-29 02:11:00,56.0,24.0,-100.00,SSW,208,11.0,22.0,29,0.00,,,-99.99,,2013-09-29 09:11:00,
2013-09-29 02:22:00,56.0,30.0,-100.00,SSW,213,9.0,17.0,37,0.00,,,-99.99,,2013-09-29 09:22:00,
2013-09-29 02:33:00,56.0,30.0,-100.00,SSW,213,9.0,17.0,37,0.00,,,-99.99,,2013-09-29 09:33:00,
2013-09-29 02:53:00,56.0,31.0,-100.00,SW,224,10.0,21.0,38,0.00,,,-99.99,,2013-09-29 09:53:00,
2013-09-29 03:03:00,56.0,31.0,-100.00,SW,224,10.0,21.0,38,0.00,,,-99.99,,2013-09-29 10:03:00,
2013-09-29 03:23:00,55.0,30.0,-100.00,North,-999,-999.0,-999.0,38,0.00,,,-99.99,,2013-09-29 10:23:00,
2013-09-29 03:43:00,55.0,30.0,-100.00,SW,222,10.0,18.0,38,0.00,,,-99.99,,2013-09-29 10:43:00,
2013-09-29 03:53:00,55.0,30.0,-100.00,SW,227,12.0,22.0,38,0.00,,,-99.99,,2013-09-29 10:53:00,
2013-09-29 04:02:00,55.0,30.0,-100.00,SW,227,12.0,22.0,38,0.00,,,-99.99,,2013-09-29 11:02:00,
2013-09-29 04:12:00,55.0,30.0,-100.00,SW,227,12.0,22.0,38,0.00,,,-99.99,,2013-09-29 11:12:00,
2013-09-29 04:22:00,55.0,30.0,-100.00,SW,232,10.0,21.0,38,0.00,,,-99.99,,2013-09-29 11:22:00,
2013-09-29 04:42:00,55.0,29.0,-100.00,WSW,237,11.0,26.0,37,0.00,,,-99.99,,2013-09-29 11:42:00,
2013-09-29 04:52:00,55.0,31.0,-100.00,SW,220,10.0,18.0,39,0.00,,,-99.99,,2013-09-29 11:52:00,
2013-09-29 05:12:00,55.0,31.0,-100.00,SW,223,12.0,23.0,39,0.00,,,-99.99,,2013-09-29 12:12:00,
2013-09-29 05:21:00,54.0,30.0,-100.00,SW,220,11.0,20.0,39,0.00,,,-99.99,,2013-09-29 12:21:00,
2013-09-29 05:42:00,54.0,30.0,-100.00,SW,219,12.0,24.0,40,0.00,,,-99.99,,2013-09-29 12:42:00,
2013-09-29 05:52:00,54.0,30.0,-100.00,SW,219,12.0,24.0,40,0.00,,,-99.99,,2013-09-29 12:52:00,
2013-09-29 06:22:00,54.0,30.0,-100.00,SW,215,11.0,21.0,39,0.00,,,-99.99,,2013-09-29 13:22:00,
2013-09-29 06:42:00,54.0,30.0,-100.00,SSW,212,13.0,24.0,39,0.00,,,-99.99,,2013-09-29 13:42:00,
2013-09-29 07:11:00,54.0,29.0,-100.00,SW,216,12.0,23.0,38,0.00,,,-99.99,,2013-09-29 14:11:00,
2013-09-29 07:21:00,54.0,29.0,-100.00,SW,216,11.0,19.0,38,0.00,,,-99.99,,2013-09-29 14:21:00,
2013-09-29 07:42:00,54.0,29.0,-100.00,SW,219,12.0,23.0,38,0.00,,,-99.99,,2013-09-29 14:42:00,
2013-09-29 08:11:00,54.0,30.0,-100.00,SW,229,12.0,23.0,39,0.00,,,-99.99,,2013-09-29 15:11:00,
2013-09-29 08:22:00,54.0,30.0,-100.00,SW,215,12.0,26.0,40,0.00,,,-99.99,,2013-09-29 15:22:00,
2013-09-29 08:35:00,54.0,30.0,-100.00,SW,215,12.0,26.0,40,0.00,,,-99.99,,2013-09-29 15:35:00,
2013-09-29 08:45:00,54.0,30.0,-100.00,SW,215,12.0,26.0,40,0.00,,,-99.99,,2013-09-29 15:45:00,
2013-09-29 08:54:00,54.0,30.0,-100.00,SW,217,15.0,30.0,39,0.00,,,-99.99,,2013-09-29 15:54:00,
2013-09-29 09:04:00,54.0,30.0,-100.00,SW,217,15.0,30.0,39,0.00,,,-99.99,,2013-09-29 16:04:00,
2013-09-29 09:24:00,54.0,30.0,-100.00,SW,215,14.0,32.0,39,0.00,,,-99.99,,2013-09-29 16:24:00,
2013-09-29 09:44:00,56.0,31.0,-100.00,SW,219,17.0,34.0,38,0.00,,,-99.99,,2013-09-29 16:44:00,
2013-09-29 10:12:00,57.0,31.0,-100.00,SSW,213,15.0,31.0,37,0.00,,,-99.99,,2013-09-29 17:12:00,
2013-09-29 10:23:00,57.0,31.0,-100.00,SSW,213,15.0,31.0,37,0.00,,,-99.99,,2013-09-29 17:23:00,
2013-09-29 10:43:00,57.0,31.0,-100.00,SW,222,15.0,29.0,37,0.00,,,-99.99,,2013-09-29 17:43:00,
2013-09-29 11:13:00,59.0,31.0,-100.00,SSW,213,15.0,28.0,34,0.00,,,-99.99,,2013-09-29 18:13:00,
2013-09-29 11:22:00,58.0,30.0,-100.00,SW,217,17.0,38.0,34,0.00,,,-99.99,,2013-09-29 18:22:00,
2013-09-29 11:42:00,59.0,31.0,-100.00,SW,229,18.0,35.0,34,0.00,,,-99.99,,2013-09-29 18:42:00,
2013-09-29 11:52:00,59.0,29.0,-100.00,SW,232,22.0,44.0,32,0.00,,,-99.99,,2013-09-29 18:52:00,
2013-09-29 12:02:00,59.0,29.0,-100.00,SW,232,22.0,44.0,32,0.00,,,-99.99,,2013-09-29 19:02:00,
2013-09-29 12:11:00,59.0,29.0,-100.00,SW,232,22.0,44.0,32,0.00,,,-99.99,,2013-09-29 19:11:00,
2013-09-29 12:21:00,60.0,28.0,-100.00,SW,220,18.0,30.0,29,0.00,,,-99.99,,2013-09-29 19:21:00,
2013-09-29 12:42:00,60.0,28.0,-100.00,SW,216,20.0,37.0,29,0.00,,,-99.99,,2013-09-29 19:42:00,
2013-09-29 12:52:00,61.0,29.0,-100.00,SW,215,19.0,37.0,29,0.00,,,-99.99,,2013-09-29 19:52:00,
2013-09-29 13:02:00,61.0,29.0,-100.00,SW,215,19.0,37.0,29,0.00,,,-99.99,,2013-09-29 20:02:00,
2013-09-29 13:12:00,61.0,29.0,-100.00,SW,215,19.0,37.0,29,0.00,,,-99.99,,2013-09-29 20:12:00,
2013-09-29 13:21:00,61.0,29.0,-100.00,SW,215,19.0,37.0,29,0.00,,,-99.99,,2013-09-29 20:21:00,
2013-09-29 13:42:00,61.0,29.0,-100.00,SW,236,22.0,45.0,29,0.00,,,-99.99,,2013-09-29 20:42:00,
2013-09-29 14:11:00,61.0,28.0,-100.00,WSW,240,23.0,42.0,28,0.00,,,-99.99,,2013-09-29 21:11:00,
2013-09-29 14:21:00,61.0,28.0,-100.00,WSW,240,23.0,42.0,28,0.00,,,-99.99,,2013-09-29 21:21:00,
2013-09-29 14:55:00,62.0,28.0,-100.00,SW,230,22.0,42.0,27,0.00,,,-99.99,,2013-09-29 21:55:00,
2013-09-29 15:04:00,62.0,28.0,-100.00,SW,230,22.0,42.0,27,0.00,,,-99.99,,2013-09-29 22:04:00,
2013-09-29 15:23:00,62.0,28.0,-100.00,SW,236,22.0,43.0,27,0.00,,,-99.99,,2013-09-29 22:23:00,
2013-09-29 15:43:00,61.0,29.0,-100.00,SW,230,23.0,43.0,29,0.00,,,-99.99,,2013-09-29 22:43:00,
2013-09-29 15:52:00,62.0,29.0,-100.00,SW,223,18.0,37.0,28,0.00,,,-99.99,,2013-09-29 22:52:00,
2013-09-29 16:03:00,62.0,29.0,-100.00,SW,223,18.0,37.0,28,0.00,,,-99.99,,2013-09-29 23:03:00,
2013-09-29 16:12:00,62.0,29.0,-100.00,SW,223,18.0,37.0,28,0.00,,,-99.99,,2013-09-29 23:12:00,
2013-09-29 16:43:00,60.0,27.0,-100.00,SW,215,17.0,35.0,28,0.00,,,-99.99,,2013-09-29 23:43:00,
2013-09-29 17:11:00,60.0,28.0,-100.00,SW,226,15.0,29.0,30,0.00,,,-99.99,,2013-09-30 00:11:00,
2013-09-29 17:22:00,60.0,28.0,-100.00,SW,226,15.0,29.0,30,0.00,,,-99.99,,2013-09-30 00:22:00,
2013-09-29 17:42:00,60.0,27.0,-100.00,SW,222,18.0,32.0,28,0.00,,,-99.99,,2013-09-30 00:42:00,
2013-09-29 18:11:00,60.0,26.0,-100.00,SW,224,17.0,36.0,27,0.00,,,-99.99,,2013-09-30 01:11:00,
2013-09-29 18:22:00,60.0,27.0,-100.00,SW,220,17.0,37.0,28,0.00,,,-99.99,,2013-09-30 01:22:00,
2013-09-29 18:31:00,60.0,27.0,-100.00,SW,220,17.0,37.0,28,0.00,,,-99.99,,2013-09-30 01:31:00,
2013-09-29 18:42:00,60.0,27.0,-100.00,SW,220,17.0,37.0,28,0.00,,,-99.99,,2013-09-30 01:42:00,
2013-09-29 18:52:00,58.0,27.0,-100.00,SW,217,13.0,26.0,30,0.00,,,-99.99,,2013-09-30 01:52:00,
2013-09-29 19:02:00,58.0,27.0,-100.00,SW,217,13.0,26.0,30,0.00,,,-99.99,,2013-09-30 02:02:00,
2013-09-29 19:22:00,57.0,27.0,-100.00,SSW,213,13.0,24.0,31,0.00,,,-99.99,,2013-09-30 02:22:00,
2013-09-29 19:32:00,57.0,27.0,-100.00,SSW,213,13.0,24.0,31,0.00,,,-99.99,,2013-09-30 02:32:00,
2013-09-29 19:52:00,57.0,27.0,-100.00,SSW,210,15.0,33.0,31,0.00,,,-99.99,,2013-09-30 02:52:00,
2013-09-29 20:02:00,57.0,27.0,-100.00,SSW,210,15.0,33.0,31,0.00,,,-99.99,,2013-09-30 03:02:00,
2013-09-29 20:22:00,56.0,28.0,-100.00,North,-999,-999.0,-999.0,34,0.00,,,-99.99,,2013-09-30 03:22:00,
2013-09-29 20:44:00,56.0,29.0,-100.00,SSW,210,11.0,26.0,35,0.00,,,-99.99,,2013-09-30 03:44:00,
2013-09-29 21:24:00,55.0,28.0,-100.00,SSW,202,13.0,25.0,35,0.00,,,-99.99,,2013-09-30 04:24:00,
2013-09-29 21:33:00,55.0,28.0,-100.00,SSW,202,13.0,25.0,35,0.00,,,-99.99,,2013-09-30 04:33:00,
2013-09-29 21:44:00,55.0,28.0,-100.00,SSW,202,13.0,25.0,35,0.00,,,-99.99,,2013-09-30 04:44:00,
2013-09-29 21:53:00,55.0,27.0,-100.00,SSW,213,13.0,24.0,34,0.00,,,-99.99,,2013-09-30 04:53:00,
2013-09-29 22:12:00,55.0,27.0,-100.00,SSW,213,14.0,28.0,34,0.00,,,-99.99,,2013-09-30 05:12:00,
2013-09-29 22:23:00,55.0,26.0,-100.00,SW,217,16.0,28.0,33,0.00,,,-99.99,,2013-09-30 05:23:00,
2013-09-29 22:43:00,55.0,28.0,-100.00,SW,220,17.0,32.0,35,0.00,,,-99.99,,2013-09-30 05:43:00,
2013-09-29 23:21:00,55.0,30.0,-100.00,SW,216,14.0,33.0,38,0.00,,,-99.99,,2013-09-30 06:21:00,